createdAt,value
2022-09-05T00:02:49.044Z,101936.41
2022-09-05T00:05:51.016Z,101930.31
2022-09-05T00:08:40.777Z,101931.59
2022-09-05T00:11:41.202Z,101929.94
2022-09-05T00:14:36.734Z,101939.84
2022-09-05T00:17:21.839Z,101926.88
2022-09-05T00:24:22.382Z,101941.31
2022-09-05T00:24:32.633Z,101931.78
2022-09-05T00:26:06.735Z,101935.41
2022-09-05T00:28:46.777Z,101934.56
2022-09-05T00:31:55.020Z,101926.78
2022-09-05T00:34:47.896Z,101934.13
2022-09-05T00:37:32.031Z,101940.53
2022-09-05T00:40:19.115Z,101941.22
2022-09-05T00:42:52.870Z,101940.66
2022-09-05T00:45:30.033Z,101944.50
2022-09-05T00:48:12.242Z,101945.44
2022-09-05T00:50:59.048Z,101946.44
2022-09-05T00:53:33.897Z,101943.00
2022-09-05T00:56:16.796Z,101945.53
2022-09-05T00:59:00.941Z,101953.66
2022-09-05T01:01:33.274Z,101944.88
2022-09-05T01:04:20.423Z,101953.00
2022-09-05T01:07:19.473Z,101959.16
2022-09-05T01:09:58.009Z,101962.78
2022-09-05T01:12:52.633Z,101959.16
2022-09-05T01:15:30.002Z,101959.34
2022-09-05T01:18:40.917Z,101959.47
2022-09-05T01:21:26.285Z,101954.03
2022-09-05T01:24:30.415Z,101954.22
2022-09-05T01:28:11.278Z,101951.63
2022-09-05T01:30:31.681Z,101948.94
2022-09-05T01:33:10.477Z,101950.84
2022-09-05T01:36:10.761Z,101949.06
2022-09-05T01:39:02.812Z,101945.16
2022-09-05T01:41:43.235Z,101949.63
2022-09-05T01:44:31.697Z,101938.88
2022-09-05T01:47:30.774Z,101947.69
2022-09-05T01:50:11.422Z,101942.28
2022-09-05T01:52:59.842Z,101945.75
2022-09-05T01:56:06.007Z,101946.59
2022-09-05T01:58:49.373Z,101942.25
2022-09-05T02:01:32.488Z,101943.00
2022-09-05T02:04:56.276Z,101936.59
2022-09-05T02:07:36.493Z,101933.25
2022-09-05T02:10:26.805Z,101933.25
2022-09-05T02:13:03.528Z,101935.97
2022-09-05T02:15:42.908Z,101932.56
2022-09-05T02:18:32.616Z,101932.50
2022-09-05T02:21:05.420Z,101936.00
2022-09-05T02:23:44.211Z,101908.81
2022-09-05T02:26:19.932Z,101935.31
2022-09-05T02:28:55.925Z,101931.91
2022-09-05T02:31:30.990Z,101931.94
2022-09-05T02:34:07.999Z,101940.88
2022-09-05T02:36:43.736Z,101933.78
2022-09-05T02:44:43.019Z,101928.50
2022-09-05T02:45:08.134Z,101926.88
2022-09-05T02:45:34.856Z,101916.25
2022-09-05T02:48:17.171Z,101922.38
2022-09-05T02:53:19.688Z,101914.47
2022-09-05T02:57:42.315Z,101916.31
2022-09-05T02:58:04.931Z,101913.56
2022-09-05T02:59:54.605Z,101915.44
2022-09-05T03:02:30.668Z,101910.97
2022-09-05T03:05:06.770Z,101915.56
2022-09-05T03:08:16.603Z,101905.81
2022-09-05T03:11:04.863Z,101882.09
2022-09-05T03:14:01.648Z,101907.69
2022-09-05T03:17:14.946Z,101904.19
2022-09-05T03:20:25.131Z,101902.38
2022-09-05T03:23:18.971Z,101905.06
2022-09-05T03:26:28.559Z,101899.81
2022-09-05T03:29:44.308Z,101909.75
2022-09-05T03:32:42.023Z,101909.09
2022-09-05T03:35:52.705Z,101911.88
2022-09-05T03:39:08.270Z,101910.41
2022-09-05T03:41:49.324Z,101913.06
2022-09-05T03:44:37.834Z,101924.72
2022-09-05T03:47:26.596Z,101921.28
2022-09-05T03:57:04.869Z,101929.47
2022-09-05T03:57:06.708Z,101926.91
2022-09-05T03:57:19.056Z,101928.78
2022-09-05T04:00:07.451Z,101926.97
2022-09-05T04:08:06.612Z,101920.72
2022-09-05T04:08:15.120Z,101923.50
2022-09-05T04:08:36.957Z,101918.09
2022-09-05T04:11:15.152Z,101897.03
2022-09-05T04:13:49.752Z,101919.84
2022-09-05T04:16:23.070Z,101923.47
2022-09-05T04:18:55.761Z,101925.28
2022-09-05T04:21:28.801Z,101919.97
2022-09-05T04:24:11.073Z,101926.25
2022-09-05T04:27:06.872Z,101926.16
2022-09-05T04:29:47.237Z,101931.66
2022-09-05T04:32:28.751Z,101927.97
2022-09-05T04:35:15.893Z,101936.84
2022-09-05T04:37:55.225Z,101938.81
2022-09-05T04:40:42.797Z,101943.19
2022-09-05T04:43:20.469Z,101937.72
2022-09-05T04:45:53.640Z,101938.66
2022-09-05T04:48:27.626Z,101942.22
2022-09-05T04:51:06.190Z,101943.09
2022-09-05T04:54:01.462Z,101945.88
2022-09-05T04:56:34.346Z,101937.19
2022-09-05T05:02:58.340Z,101945.81
2022-09-05T05:05:59.996Z,101928.13
2022-09-05T05:06:14.661Z,101942.13
2022-09-05T05:07:51.055Z,101949.94
2022-09-05T05:16:06.316Z,101949.91
2022-09-05T05:18:01.917Z,101949.81
2022-09-05T05:18:12.648Z,101948.91
2022-09-05T05:19:18.881Z,101948.81
2022-09-05T05:21:53.072Z,101953.22
2022-09-05T05:24:25.024Z,101945.97
2022-09-05T05:26:59.790Z,101953.81
2022-09-05T05:29:38.787Z,101959.91
2022-09-05T05:32:08.376Z,101965.13
2022-09-05T05:34:42.662Z,101956.03
2022-09-05T05:37:18.978Z,101963.81
2022-09-05T05:39:51.952Z,101960.84
2022-09-05T05:42:24.201Z,101969.38
2022-09-05T05:44:54.681Z,101967.38
2022-09-05T05:47:31.772Z,101966.41
2022-09-05T05:50:05.093Z,101971.69
2022-09-05T05:52:53.713Z,101971.34
2022-09-05T05:56:05.624Z,101979.94
2022-09-05T05:58:59.704Z,101985.38
2022-09-05T06:02:11.523Z,101992.06
2022-09-05T06:05:19.621Z,101992.59
2022-09-05T06:10:19.789Z,101995.91
2022-09-05T06:14:49.450Z,101991.78
2022-09-05T06:15:04.289Z,101996.84
2022-09-05T06:18:08.238Z,101997.34
2022-09-05T06:22:10.594Z,102001.50
2022-09-05T06:24:47.976Z,102004.75
2022-09-05T06:28:02.258Z,102009.09
2022-09-05T06:30:40.411Z,102011.53
2022-09-05T06:33:16.647Z,101989.19
2022-09-05T06:36:01.281Z,102006.41
2022-09-05T06:38:51.869Z,102006.91
2022-09-05T06:41:28.808Z,102005.75
2022-09-05T06:44:15.674Z,102001.97
2022-09-05T06:46:55.173Z,101994.59
2022-09-05T06:49:48.726Z,101996.72
2022-09-05T06:52:39.102Z,101995.66
2022-09-05T06:55:40.539Z,101996.16
2022-09-05T06:58:46.723Z,102000.84
2022-09-05T07:01:17.962Z,102003.06
2022-09-05T07:04:34.575Z,102002.81
2022-09-05T07:07:18.700Z,102005.06
2022-09-05T07:09:57.431Z,102000.38
2022-09-05T07:12:30.194Z,102013.31
2022-09-05T07:15:13.584Z,102018.84
2022-09-05T07:18:09.702Z,102017.72
2022-09-05T07:21:16.016Z,102024.66
2022-09-05T07:24:07.032Z,102020.53
2022-09-05T07:26:54.757Z,102016.06
2022-09-05T07:29:27.838Z,102021.75
2022-09-05T07:32:00.685Z,102019.41
2022-09-05T07:34:31.380Z,102016.50
2022-09-05T07:37:14.843Z,102021.19
2022-09-05T07:39:49.638Z,102021.97
2022-09-05T07:42:22.846Z,102030.94
2022-09-05T07:44:56.459Z,102029.72
2022-09-05T07:47:31.296Z,102030.88
2022-09-05T07:52:47.399Z,102028.78
2022-09-05T07:56:47.608Z,102037.22
2022-09-05T07:57:00.085Z,102038.44
2022-09-05T07:58:41.730Z,102040.31
2022-09-05T08:01:13.549Z,102043.22
2022-09-05T08:03:44.448Z,102041.69
2022-09-05T08:06:37.479Z,102031.53
2022-09-05T08:10:06.137Z,102025.09
2022-09-05T08:12:11.325Z,102030.50
2022-09-05T08:14:50.576Z,102030.34
2022-09-05T08:17:21.077Z,102025.59
2022-09-05T08:20:15.145Z,102031.72
2022-09-05T08:22:59.431Z,102021.66
2022-09-05T08:25:37.564Z,102021.34
2022-09-05T08:28:25.240Z,102017.97
2022-09-05T08:31:07.856Z,102018.84
2022-09-05T08:33:38.337Z,102004.91
2022-09-05T08:36:16.759Z,102024.44
2022-09-05T08:38:45.576Z,102018.16
2022-09-05T08:41:23.621Z,102012.00
2022-09-05T08:46:36.065Z,102018.19
2022-09-05T08:47:13.648Z,102016.47
2022-09-05T08:49:58.841Z,102019.03
2022-09-05T08:52:41.733Z,102013.84
2022-09-05T08:55:18.881Z,102021.09
2022-09-05T08:58:02.189Z,102018.16
2022-09-05T09:00:36.074Z,102018.88
2022-09-05T09:03:11.779Z,102018.63
2022-09-05T09:06:21.703Z,102018.84
2022-09-05T09:09:05.785Z,102008.16
2022-09-05T09:11:39.425Z,102007.34
2022-09-05T09:14:35.592Z,102009.97
2022-09-05T09:17:19.475Z,102008.53
2022-09-05T09:19:53.880Z,101997.34
2022-09-05T09:22:37.412Z,102002.16
2022-09-05T09:25:16.106Z,102002.25
2022-09-05T09:28:50.119Z,101994.94
2022-09-05T09:31:02.075Z,101988.75
2022-09-05T09:33:38.404Z,101989.97
2022-09-05T09:36:20.580Z,101996.53
2022-09-05T09:39:11.879Z,101985.69
2022-09-05T09:42:14.966Z,101978.44
2022-09-05T09:45:38.785Z,101975.28
2022-09-05T09:48:33.866Z,101976.38
2022-09-05T09:51:26.971Z,101978.09
2022-09-05T09:54:20.245Z,101970.78
2022-09-05T09:57:19.223Z,101976.47
2022-09-05T10:00:08.042Z,101977.59
2022-09-05T10:06:39.465Z,101970.91
2022-09-05T10:10:36.359Z,101966.00
2022-09-05T10:10:54.669Z,101964.75
2022-09-05T10:12:32.714Z,101961.69
2022-09-05T10:15:29.633Z,101961.47
2022-09-05T10:18:24.028Z,101962.13
2022-09-05T10:21:17.941Z,101960.31
2022-09-05T10:24:12.260Z,101949.75
2022-09-05T10:27:06.629Z,101958.09
2022-09-05T10:29:56.861Z,101948.47
2022-09-05T10:35:10.991Z,101939.28
2022-09-05T10:35:27.752Z,101949.38
2022-09-05T10:38:04.365Z,101940.19
2022-09-05T10:41:09.721Z,101938.34
2022-09-05T10:43:33.302Z,101940.41
2022-09-05T10:46:16.966Z,101942.44
2022-09-05T10:48:55.429Z,101940.81
2022-09-05T10:51:30.530Z,101929.31
2022-09-05T10:54:15.365Z,101923.72
2022-09-05T10:56:49.121Z,101925.19
2022-09-05T11:02:20.275Z,101938.94
2022-09-05T11:02:34.923Z,101930.94
2022-09-05T11:05:20.265Z,101929.41
2022-09-05T11:08:01.944Z,101937.81
2022-09-05T11:10:36.029Z,101930.59
2022-09-05T11:13:12.416Z,101942.66
2022-09-05T11:16:04.710Z,101935.66
2022-09-05T11:18:56.310Z,101930.06
2022-09-05T11:21:32.863Z,101933.25
2022-09-05T11:24:08.212Z,101938.19
2022-09-05T11:26:43.314Z,101938.97
2022-09-05T11:29:19.677Z,101930.06
2022-09-05T11:36:14.660Z,101930.00
2022-09-05T11:39:51.196Z,101930.84
2022-09-05T11:40:04.228Z,101926.31
2022-09-05T11:41:56.841Z,101922.97
2022-09-05T11:44:34.783Z,101921.50
2022-09-05T11:47:44.848Z,101917.72
2022-09-05T11:50:48.902Z,101911.97
2022-09-05T11:53:52.792Z,101923.13
2022-09-05T11:57:26.638Z,101923.19
2022-09-05T12:00:30.868Z,101917.31
2022-09-05T12:03:57.802Z,101928.59
2022-09-05T12:06:48.248Z,101926.81
2022-09-05T12:09:34.617Z,101910.31
2022-09-05T12:12:18.665Z,101906.97
2022-09-05T12:15:21.966Z,101903.94
2022-09-05T12:18:04.755Z,101901.69
2022-09-05T12:21:02.706Z,101901.84
2022-09-05T12:23:58.051Z,101901.25
2022-09-05T12:27:41.797Z,101893.63
2022-09-05T12:29:46.778Z,101891.25
2022-09-05T12:36:01.192Z,101895.78
2022-09-05T12:36:10.696Z,101885.63
2022-09-05T12:40:38.485Z,101886.53
2022-09-05T12:41:43.260Z,101873.53
2022-09-05T12:44:41.192Z,101882.50
2022-09-05T12:47:19.050Z,101883.50
2022-09-05T12:50:03.011Z,101884.28
2022-09-05T12:52:43.281Z,101885.09
2022-09-05T12:55:22.543Z,101886.25
2022-09-05T13:02:55.047Z,101883.50
2022-09-05T13:03:13.207Z,101892.00
2022-09-05T13:04:05.965Z,101890.16
2022-09-05T13:06:39.095Z,101885.22
2022-09-05T13:09:11.561Z,101876.09
2022-09-05T13:14:52.747Z,101880.88
2022-09-05T13:15:08.082Z,101874.13
2022-09-05T13:17:44.745Z,101865.81
2022-09-05T13:20:18.854Z,101865.97
2022-09-05T13:22:50.504Z,101869.56
2022-09-05T13:25:25.005Z,101873.66
2022-09-05T13:27:59.038Z,101867.66
2022-09-05T13:35:42.184Z,101871.59
2022-09-05T13:37:58.605Z,101867.88
2022-09-05T13:38:03.471Z,101858.78
2022-09-05T13:39:09.669Z,101851.13
2022-09-05T13:41:44.014Z,101856.53
2022-09-05T13:44:25.370Z,101863.38
2022-09-05T13:47:00.757Z,101853.03
2022-09-05T13:49:37.157Z,101852.09
2022-09-05T13:52:26.300Z,101850.44
2022-09-05T13:55:15.546Z,101855.81
2022-09-05T13:57:47.865Z,101853.88
2022-09-05T14:00:53.231Z,101855.69
2022-09-05T14:04:00.626Z,101861.47
2022-09-05T14:06:49.247Z,101862.25
2022-09-05T14:09:36.659Z,101856.44
2022-09-05T14:12:15.825Z,101850.97
2022-09-05T14:17:54.321Z,101855.50
2022-09-05T14:20:49.367Z,101857.06
2022-09-05T14:23:22.186Z,101858.06
2022-09-05T14:25:55.403Z,101856.16
2022-09-05T14:28:28.942Z,101859.03
2022-09-05T14:34:53.343Z,101858.78
2022-09-05T14:37:52.442Z,101865.41
2022-09-05T14:37:54.948Z,101861.03
2022-09-05T14:40:47.570Z,101857.03
2022-09-05T14:43:48.118Z,101865.88
2022-09-05T14:46:49.718Z,101859.47
2022-09-05T14:49:49.142Z,101862.91
2022-09-05T14:52:23.562Z,101853.09
2022-09-05T15:02:42.070Z,101852.50
2022-09-05T15:02:54.722Z,101845.03
2022-09-05T15:06:37.866Z,101850.09
2022-09-05T15:11:54.996Z,101851.75
2022-09-05T15:12:28.074Z,101849.69
2022-09-05T15:15:00.518Z,101844.75
2022-09-05T15:17:31.677Z,101840.06
2022-09-05T15:20:07.526Z,101844.94
2022-09-05T15:22:38.310Z,101841.94
2022-09-05T15:25:17.355Z,101839.81
2022-09-05T15:27:46.594Z,101836.41
2022-09-05T15:30:21.056Z,101833.88
2022-09-05T15:32:51.342Z,101842.13
2022-09-05T15:35:36.590Z,101843.44
2022-09-05T15:38:23.735Z,101837.00
2022-09-05T15:41:21.061Z,101842.94
2022-09-05T15:43:58.286Z,101844.63
2022-09-05T15:46:35.708Z,101836.63
2022-09-05T15:49:09.701Z,101840.56
2022-09-05T15:51:45.854Z,101829.13
2022-09-05T15:54:38.790Z,101836.34
2022-09-05T15:57:17.403Z,101832.34
2022-09-05T15:59:49.410Z,101830.50
2022-09-05T16:02:21.703Z,101822.44
2022-09-05T16:10:27.534Z,101823.63
2022-09-05T16:10:36.335Z,101818.00
2022-09-05T16:11:24.997Z,101823.66
2022-09-05T16:13:53.026Z,101822.19
2022-09-05T16:23:13.281Z,101824.03
2022-09-05T16:23:25.847Z,101822.13
2022-09-05T16:23:30.447Z,101819.66
2022-09-05T16:25:09.203Z,101815.13
2022-09-05T16:27:51.063Z,101822.34
2022-09-05T16:30:24.258Z,101820.44
2022-09-05T16:32:57.552Z,101810.91
2022-09-05T16:35:26.818Z,101811.44
2022-09-05T16:38:04.220Z,101801.03
2022-09-05T16:40:36.785Z,101799.25
2022-09-05T16:43:09.824Z,101801.81
2022-09-05T16:45:47.803Z,101798.22
2022-09-05T16:48:40.661Z,101794.38
2022-09-05T16:51:18.247Z,101791.56
2022-09-05T16:54:13.317Z,101790.94
2022-09-05T16:56:44.889Z,101786.72
2022-09-05T16:59:17.612Z,101786.00
2022-09-05T17:02:06.713Z,101788.31
2022-09-05T17:05:04.447Z,101784.19
2022-09-05T17:07:55.505Z,101789.78
2022-09-05T17:10:28.814Z,101782.81
2022-09-05T17:12:57.492Z,101777.72
2022-09-05T17:15:29.297Z,101789.56
2022-09-05T17:18:19.343Z,101787.09
2022-09-05T17:20:55.888Z,101794.28
2022-09-05T17:26:24.987Z,101787.38
2022-09-05T17:29:32.962Z,101793.13
2022-09-05T17:32:45.555Z,101791.09
2022-09-05T17:35:26.103Z,101786.22
2022-09-05T17:38:15.811Z,101798.75
2022-09-05T17:41:25.188Z,101789.72
2022-09-05T17:44:05.997Z,101795.75
2022-09-05T17:46:43.026Z,101789.88
2022-09-05T17:49:18.469Z,101784.38
2022-09-05T17:52:22.022Z,101794.78
2022-09-05T17:54:53.314Z,101780.53
2022-09-05T17:57:45.249Z,101788.66
2022-09-05T18:01:04.525Z,101789.88
2022-09-05T18:04:18.126Z,101784.28
2022-09-05T18:07:00.454Z,101790.03
2022-09-05T18:10:12.221Z,101793.00
2022-09-05T18:13:31.672Z,101796.94
2022-09-05T18:16:12.154Z,101797.41
2022-09-05T18:19:28.784Z,101802.22
2022-09-05T18:21:50.059Z,101801.59
2022-09-05T18:24:33.275Z,101795.69
2022-09-05T18:27:36.554Z,101796.47
2022-09-05T18:30:06.209Z,101797.44
2022-09-05T18:32:45.293Z,101799.91
2022-09-05T18:35:36.180Z,101805.59
2022-09-05T18:38:49.935Z,101800.59
2022-09-05T18:41:21.699Z,101803.28
2022-09-05T18:44:13.385Z,101803.53
2022-09-05T18:46:48.283Z,101803.75
2022-09-05T18:50:21.392Z,101809.50
2022-09-05T18:52:17.211Z,101809.25
2022-09-05T18:55:49.494Z,101809.50
2022-09-05T18:57:59.126Z,101815.16
2022-09-05T19:00:44.837Z,101819.78
2022-09-05T19:03:25.014Z,101810.84
2022-09-05T19:05:59.275Z,101813.63
2022-09-05T19:08:54.146Z,101810.31
2022-09-05T19:11:28.892Z,101807.97
2022-09-05T19:14:26.703Z,101806.53
2022-09-05T19:16:50.067Z,101818.25
2022-09-05T19:19:24.899Z,101815.84
2022-09-05T19:23:01.077Z,101809.47
2022-09-05T19:24:46.498Z,101817.50
2022-09-05T19:28:47.160Z,101815.66
2022-09-05T19:36:46.080Z,101813.28
2022-09-05T19:36:54.921Z,101814.47
2022-09-05T19:37:09.432Z,101812.59
2022-09-05T19:39:32.608Z,101813.69
2022-09-05T19:47:29.255Z,101815.41
2022-09-05T19:47:38.383Z,101812.00
2022-09-05T19:47:45.142Z,101815.94
2022-09-05T19:50:11.383Z,101805.41
2022-09-05T19:52:41.140Z,101812.50
2022-09-05T19:55:21.856Z,101810.75
2022-09-05T19:58:17.181Z,101816.00
2022-09-05T20:00:41.963Z,101818.94
2022-09-05T20:03:21.339Z,101816.16
2022-09-05T20:05:51.634Z,101805.41
2022-09-05T20:08:33.057Z,101804.69
2022-09-05T20:11:02.672Z,101808.47
2022-09-05T20:13:30.872Z,101818.81
2022-09-05T20:16:00.396Z,101819.91
2022-09-05T20:18:41.264Z,101803.53
2022-09-05T20:21:13.057Z,101813.47
2022-09-05T20:23:45.535Z,101797.47
2022-09-05T20:26:13.681Z,101804.03
2022-09-05T20:28:43.684Z,101799.75
2022-09-05T20:31:20.053Z,101806.09
2022-09-05T20:33:52.338Z,101790.53
2022-09-05T20:40:56.297Z,101808.88
2022-09-05T20:43:22.289Z,101803.63
2022-09-05T20:43:31.552Z,101811.66
2022-09-05T20:45:01.280Z,101807.13
2022-09-05T20:54:07.047Z,101805.09
2022-09-05T20:54:19.241Z,101803.31
2022-09-05T20:54:22.173Z,101798.50
2022-09-05T20:56:21.008Z,101811.41
2022-09-05T20:58:51.190Z,101800.63
2022-09-05T21:01:23.411Z,101795.28
2022-09-05T21:03:57.156Z,101796.06
2022-09-05T21:06:29.501Z,101797.25
2022-09-05T21:09:23.795Z,101785.03
2022-09-05T21:11:58.706Z,101788.75
2022-09-05T21:14:29.481Z,101800.75
2022-09-05T21:17:00.909Z,101805.28
2022-09-05T21:19:34.379Z,101801.91
2022-09-05T21:22:04.899Z,101810.56
2022-09-05T21:24:33.060Z,101797.06
2022-09-05T21:27:17.616Z,101801.47
2022-09-05T21:29:48.239Z,101795.78
2022-09-05T21:32:37.827Z,101801.38
2022-09-05T21:35:16.025Z,101810.38
2022-09-05T21:38:01.480Z,101802.25
2022-09-05T21:40:29.712Z,101796.38
2022-09-05T21:46:53.519Z,101809.00
2022-09-05T21:47:46.313Z,101806.63
2022-09-05T21:48:38.047Z,101814.19
2022-09-05T21:51:09.644Z,101801.69
2022-09-05T21:57:03.191Z,101801.00
2022-09-05T21:59:27.216Z,101806.59
2022-09-05T21:59:40.057Z,101800.41
2022-09-05T22:02:13.523Z,101797.09
2022-09-05T22:04:42.080Z,101807.03
2022-09-05T22:07:24.290Z,101800.28
2022-09-05T22:10:01.685Z,101799.53
2022-09-05T22:12:33.608Z,101800.41
2022-09-05T22:15:14.384Z,101789.09
2022-09-05T22:18:00.977Z,101790.13
2022-09-05T22:20:43.983Z,101784.88
2022-09-05T22:23:12.559Z,101785.78
2022-09-05T22:25:41.026Z,101786.03
2022-09-05T22:28:13.454Z,101786.91
2022-09-05T22:30:43.752Z,101791.44
2022-09-05T22:33:12.962Z,101788.97
2022-09-05T22:35:41.264Z,101784.53
2022-09-05T22:38:16.445Z,101794.34
2022-09-05T22:40:49.367Z,101786.41
2022-09-05T22:43:17.907Z,101789.22
2022-09-05T22:45:47.387Z,101787.09
2022-09-05T22:48:16.073Z,101782.06
2022-09-05T22:50:44.382Z,101775.88
2022-09-05T22:53:12.461Z,101776.81
2022-09-05T22:55:42.496Z,101778.84
2022-09-05T22:58:12.985Z,101769.09
2022-09-05T23:00:41.633Z,101763.72
2022-09-05T23:03:11.075Z,101773.84
2022-09-05T23:05:39.204Z,101759.44
2022-09-05T23:08:07.981Z,101760.63
2022-09-05T23:10:37.028Z,101771.16
2022-09-05T23:13:06.309Z,101780.41
2022-09-05T23:15:34.868Z,101770.75
2022-09-05T23:18:04.062Z,101766.19
2022-09-05T23:20:34.040Z,101765.31
2022-09-05T23:23:04.825Z,101763.44
2022-09-05T23:25:32.933Z,101766.25
2022-09-05T23:28:05.146Z,101762.84
2022-09-05T23:30:33.198Z,101760.09
2022-09-05T23:33:01.252Z,101756.59
2022-09-05T23:35:29.321Z,101754.00
2022-09-05T23:37:58.770Z,101748.19
2022-09-05T23:40:26.822Z,101747.22
2022-09-05T23:42:56.660Z,101743.72
2022-09-05T23:45:25.639Z,101749.09
2022-09-05T23:47:54.122Z,101744.47
2022-09-05T23:50:22.348Z,101738.41
2022-09-05T23:52:50.396Z,101742.19
2022-09-05T23:55:22.466Z,101744.03
2022-09-05T23:57:50.505Z,101739.81
